sensor_id;sensor_type;location;lat;lon;timestamp;temperature;humidity
12588;DHT22;6359;51.450;7.346;2022-10-18T00:01:08;15.00;99.90
12588;DHT22;6359;51.450;7.346;2022-10-18T00:03:36;15.10;99.90
12588;DHT22;6359;51.450;7.346;2022-10-18T00:06:03;15.10;99.90
12588;DHT22;6359;51.450;7.346;2022-10-18T00:08:31;15.10;99.90
12588;DHT22;6359;51.450;7.346;2022-10-18T00:10:59;15.00;99.90
12588;DHT22;6359;51.450;7.346;2022-10-18T00:13:26;15.00;99.90
12588;DHT22;6359;51.450;7.346;2022-10-18T00:15:55;15.00;99.90
12588;DHT22;6359;51.450;7.346;2022-10-18T00:18:22;15.00;99.90
12588;DHT22;6359;51.450;7.346;2022-10-18T00:20:57;15.00;99.90
12588;DHT22;6359;51.450;7.346;2022-10-18T00:23:24;15.00;99.90
12588;DHT22;6359;51.450;7.346;2022-10-18T00:26:00;15.00;99.90
12588;DHT22;6359;51.450;7.346;2022-10-18T00:28:27;15.00;99.90
12588;DHT22;6359;51.450;7.346;2022-10-18T00:30:54;15.00;99.90
12588;DHT22;6359;51.450;7.346;2022-10-18T00:33:20;15.00;99.90
12588;DHT22;6359;51.450;7.346;2022-10-18T00:35:47;14.90;99.90
12588;DHT22;6359;51.450;7.346;2022-10-18T00:38:14;14.90;99.90
12588;DHT22;6359;51.450;7.346;2022-10-18T00:40:41;14.90;99.90
12588;DHT22;6359;51.450;7.346;2022-10-18T00:43:14;14.90;99.90
12588;DHT22;6359;51.450;7.346;2022-10-18T00:45:41;14.90;99.90
12588;DHT22;6359;51.450;7.346;2022-10-18T00:48:08;14.90;99.90
12588;DHT22;6359;51.450;7.346;2022-10-18T00:50:36;14.90;99.90
12588;DHT22;6359;51.450;7.346;2022-10-18T00:53:06;14.90;99.90
12588;DHT22;6359;51.450;7.346;2022-10-18T00:55:34;14.90;99.90
12588;DHT22;6359;51.450;7.346;2022-10-18T00:58:01;14.80;99.90
12588;DHT22;6359;51.450;7.346;2022-10-18T01:00:30;14.80;99.90
12588;DHT22;6359;51.450;7.346;2022-10-18T01:02:59;14.80;99.90
12588;DHT22;6359;51.450;7.346;2022-10-18T01:05:26;14.80;99.90
12588;DHT22;6359;51.450;7.346;2022-10-18T01:08:21;14.80;99.90
12588;DHT22;6359;51.450;7.346;2022-10-18T01:10:57;14.80;99.90
12588;DHT22;6359;51.450;7.346;2022-10-18T01:13:42;14.80;99.90
12588;DHT22;6359;51.450;7.346;2022-10-18T01:16:19;14.80;99.90
12588;DHT22;6359;51.450;7.346;2022-10-18T01:18:54;14.70;99.90
12588;DHT22;6359;51.450;7.346;2022-10-18T01:21:36;14.70;99.90
12588;DHT22;6359;51.450;7.346;2022-10-18T01:24:19;14.70;99.90
12588;DHT22;6359;51.450;7.346;2022-10-18T01:27:43;14.70;99.90
12588;DHT22;6359;51.450;7.346;2022-10-18T01:30:37;14.70;99.90
12588;DHT22;6359;51.450;7.346;2022-10-18T01:33:24;14.70;99.90
12588;DHT22;6359;51.450;7.346;2022-10-18T01:35:57;14.70;99.90
12588;DHT22;6359;51.450;7.346;2022-10-18T01:38:27;14.70;99.90
12588;DHT22;6359;51.450;7.346;2022-10-18T01:40:55;14.70;99.90
12588;DHT22;6359;51.450;7.346;2022-10-18T01:43:24;14.70;99.90
12588;DHT22;6359;51.450;7.346;2022-10-18T01:45:54;14.70;99.90
12588;DHT22;6359;51.450;7.346;2022-10-18T01:48:22;14.70;99.90
12588;DHT22;6359;51.450;7.346;2022-10-18T01:50:50;14.70;99.90
12588;DHT22;6359;51.450;7.346;2022-10-18T01:53:22;14.70;99.90
12588;DHT22;6359;51.450;7.346;2022-10-18T01:56:02;14.70;99.90
12588;DHT22;6359;51.450;7.346;2022-10-18T01:58:37;14.70;99.90
12588;DHT22;6359;51.450;7.346;2022-10-18T02:01:10;14.60;99.90
12588;DHT22;6359;51.450;7.346;2022-10-18T02:03:44;14.60;99.90
12588;DHT22;6359;51.450;7.346;2022-10-18T02:06:16;14.60;99.90
12588;DHT22;6359;51.450;7.346;2022-10-18T02:08:47;14.60;99.90
12588;DHT22;6359;51.450;7.346;2022-10-18T02:11:16;14.60;99.90
12588;DHT22;6359;51.450;7.346;2022-10-18T02:13:46;14.50;99.90
12588;DHT22;6359;51.450;7.346;2022-10-18T02:16:18;14.50;99.90
12588;DHT22;6359;51.450;7.346;2022-10-18T02:18:51;14.50;99.90
12588;DHT22;6359;51.450;7.346;2022-10-18T02:21:21;14.40;99.90
12588;DHT22;6359;51.450;7.346;2022-10-18T02:23:51;14.40;99.90
12588;DHT22;6359;51.450;7.346;2022-10-18T02:26:18;14.40;99.90
12588;DHT22;6359;51.450;7.346;2022-10-18T02:28:45;14.40;99.90
12588;DHT22;6359;51.450;7.346;2022-10-18T02:31:17;14.40;99.90
12588;DHT22;6359;51.450;7.346;2022-10-18T02:33:51;14.40;99.90
12588;DHT22;6359;51.450;7.346;2022-10-18T02:36:23;14.40;99.90
12588;DHT22;6359;51.450;7.346;2022-10-18T02:38:53;14.40;99.90
12588;DHT22;6359;51.450;7.346;2022-10-18T02:41:23;14.40;99.90
12588;DHT22;6359;51.450;7.346;2022-10-18T02:43:50;14.40;99.90
12588;DHT22;6359;51.450;7.346;2022-10-18T02:46:19;14.40;99.90
12588;DHT22;6359;51.450;7.346;2022-10-18T02:48:46;14.40;99.90
12588;DHT22;6359;51.450;7.346;2022-10-18T02:51:13;14.40;99.90
12588;DHT22;6359;51.450;7.346;2022-10-18T02:53:40;14.40;99.90
12588;DHT22;6359;51.450;7.346;2022-10-18T02:56:07;14.50;99.90
12588;DHT22;6359;51.450;7.346;2022-10-18T02:58:34;14.50;99.90
12588;DHT22;6359;51.450;7.346;2022-10-18T03:01:01;14.60;99.90
12588;DHT22;6359;51.450;7.346;2022-10-18T03:03:29;14.60;99.90
12588;DHT22;6359;51.450;7.346;2022-10-18T03:05:56;14.60;99.90
12588;DHT22;6359;51.450;7.346;2022-10-18T03:08:23;14.60;99.90
12588;DHT22;6359;51.450;7.346;2022-10-18T03:10:49;14.50;99.90
12588;DHT22;6359;51.450;7.346;2022-10-18T03:13:16;14.40;99.90
12588;DHT22;6359;51.450;7.346;2022-10-18T03:15:43;14.40;99.90
12588;DHT22;6359;51.450;7.346;2022-10-18T03:18:10;14.40;99.90
12588;DHT22;6359;51.450;7.346;2022-10-18T03:20:38;14.40;99.90
12588;DHT22;6359;51.450;7.346;2022-10-18T03:23:05;14.40;99.90
12588;DHT22;6359;51.450;7.346;2022-10-18T03:25:32;14.40;99.90
12588;DHT22;6359;51.450;7.346;2022-10-18T03:28:00;14.40;99.90
12588;DHT22;6359;51.450;7.346;2022-10-18T03:30:26;14.40;99.90
12588;DHT22;6359;51.450;7.346;2022-10-18T03:32:53;14.40;99.90
12588;DHT22;6359;51.450;7.346;2022-10-18T03:35:20;14.40;99.90
12588;DHT22;6359;51.450;7.346;2022-10-18T03:37:49;14.40;99.90
12588;DHT22;6359;51.450;7.346;2022-10-18T03:40:16;14.40;99.90
12588;DHT22;6359;51.450;7.346;2022-10-18T03:42:43;14.40;99.90
12588;DHT22;6359;51.450;7.346;2022-10-18T03:45:10;14.40;99.90
12588;DHT22;6359;51.450;7.346;2022-10-18T03:47:37;14.40;99.90
12588;DHT22;6359;51.450;7.346;2022-10-18T03:50:04;14.40;99.90
12588;DHT22;6359;51.450;7.346;2022-10-18T03:52:31;14.40;99.90
12588;DHT22;6359;51.450;7.346;2022-10-18T03:54:59;14.40;99.90
12588;DHT22;6359;51.450;7.346;2022-10-18T03:57:26;14.40;99.90
12588;DHT22;6359;51.450;7.346;2022-10-18T03:59:53;14.40;99.90
12588;DHT22;6359;51.450;7.346;2022-10-18T04:02:20;14.40;99.90
12588;DHT22;6359;51.450;7.346;2022-10-18T04:04:47;14.40;99.90
12588;DHT22;6359;51.450;7.346;2022-10-18T04:07:14;14.40;99.90
12588;DHT22;6359;51.450;7.346;2022-10-18T04:09:41;14.50;99.90
12588;DHT22;6359;51.450;7.346;2022-10-18T04:12:09;14.40;99.90
12588;DHT22;6359;51.450;7.346;2022-10-18T04:14:36;14.50;99.90
12588;DHT22;6359;51.450;7.346;2022-10-18T04:17:03;14.60;99.90
12588;DHT22;6359;51.450;7.346;2022-10-18T04:19:29;14.60;99.90
12588;DHT22;6359;51.450;7.346;2022-10-18T04:21:56;14.60;99.90
12588;DHT22;6359;51.450;7.346;2022-10-18T04:24:23;14.60;99.90
12588;DHT22;6359;51.450;7.346;2022-10-18T04:26:50;14.60;99.90
12588;DHT22;6359;51.450;7.346;2022-10-18T04:29:19;14.60;99.90
12588;DHT22;6359;51.450;7.346;2022-10-18T04:31:45;14.60;99.90
12588;DHT22;6359;51.450;7.346;2022-10-18T04:34:12;14.50;99.90
12588;DHT22;6359;51.450;7.346;2022-10-18T04:36:39;14.50;99.90
12588;DHT22;6359;51.450;7.346;2022-10-18T04:39:06;14.50;99.90
12588;DHT22;6359;51.450;7.346;2022-10-18T04:41:33;14.50;99.90
12588;DHT22;6359;51.450;7.346;2022-10-18T04:44:00;14.50;99.90
12588;DHT22;6359;51.450;7.346;2022-10-18T04:46:29;14.50;99.90
12588;DHT22;6359;51.450;7.346;2022-10-18T04:48:55;14.40;99.90
12588;DHT22;6359;51.450;7.346;2022-10-18T04:51:22;14.50;99.90
12588;DHT22;6359;51.450;7.346;2022-10-18T04:53:49;14.50;99.90
12588;DHT22;6359;51.450;7.346;2022-10-18T04:56:16;14.50;99.90
12588;DHT22;6359;51.450;7.346;2022-10-18T04:58:43;14.50;99.90
12588;DHT22;6359;51.450;7.346;2022-10-18T05:01:10;14.50;99.90
12588;DHT22;6359;51.450;7.346;2022-10-18T05:03:38;14.60;99.90
12588;DHT22;6359;51.450;7.346;2022-10-18T05:06:05;14.50;99.90
12588;DHT22;6359;51.450;7.346;2022-10-18T05:08:33;14.60;99.90
12588;DHT22;6359;51.450;7.346;2022-10-18T05:11:01;14.60;99.90
12588;DHT22;6359;51.450;7.346;2022-10-18T05:13:28;14.60;99.90
12588;DHT22;6359;51.450;7.346;2022-10-18T05:15:55;14.60;99.90
12588;DHT22;6359;51.450;7.346;2022-10-18T05:18:23;14.60;99.90
12588;DHT22;6359;51.450;7.346;2022-10-18T05:20:52;14.60;99.90
12588;DHT22;6359;51.450;7.346;2022-10-18T05:23:19;14.60;99.90
12588;DHT22;6359;51.450;7.346;2022-10-18T05:25:45;14.60;99.90
12588;DHT22;6359;51.450;7.346;2022-10-18T05:28:13;14.60;99.90
12588;DHT22;6359;51.450;7.346;2022-10-18T05:30:40;14.60;99.90
12588;DHT22;6359;51.450;7.346;2022-10-18T05:33:07;14.60;99.90
12588;DHT22;6359;51.450;7.346;2022-10-18T05:35:35;14.60;99.90
12588;DHT22;6359;51.450;7.346;2022-10-18T05:38:04;14.70;99.90
12588;DHT22;6359;51.450;7.346;2022-10-18T05:40:31;14.70;99.90
12588;DHT22;6359;51.450;7.346;2022-10-18T05:42:58;14.70;99.90
12588;DHT22;6359;51.450;7.346;2022-10-18T05:45:25;14.70;99.90
12588;DHT22;6359;51.450;7.346;2022-10-18T05:47:52;14.60;99.90
12588;DHT22;6359;51.450;7.346;2022-10-18T05:50:19;14.70;99.90
12588;DHT22;6359;51.450;7.346;2022-10-18T05:52:46;14.70;99.90
12588;DHT22;6359;51.450;7.346;2022-10-18T05:55:14;14.70;99.90
12588;DHT22;6359;51.450;7.346;2022-10-18T05:57:41;14.80;99.90
12588;DHT22;6359;51.450;7.346;2022-10-18T06:00:10;14.80;99.90
12588;DHT22;6359;51.450;7.346;2022-10-18T06:02:37;14.70;99.90
12588;DHT22;6359;51.450;7.346;2022-10-18T06:05:04;14.70;99.90
12588;DHT22;6359;51.450;7.346;2022-10-18T06:07:31;14.70;99.90
12588;DHT22;6359;51.450;7.346;2022-10-18T06:09:57;14.80;99.90
12588;DHT22;6359;51.450;7.346;2022-10-18T06:12:26;14.80;99.90
12588;DHT22;6359;51.450;7.346;2022-10-18T06:14:53;14.80;99.90
12588;DHT22;6359;51.450;7.346;2022-10-18T06:17:19;14.80;99.90
12588;DHT22;6359;51.450;7.346;2022-10-18T06:19:46;14.80;99.90
12588;DHT22;6359;51.450;7.346;2022-10-18T06:22:13;14.80;99.90
12588;DHT22;6359;51.450;7.346;2022-10-18T06:24:40;14.90;99.90
12588;DHT22;6359;51.450;7.346;2022-10-18T06:27:07;14.80;99.90
12588;DHT22;6359;51.450;7.346;2022-10-18T06:29:36;14.80;99.90
12588;DHT22;6359;51.450;7.346;2022-10-18T06:32:03;14.90;99.90
12588;DHT22;6359;51.450;7.346;2022-10-18T06:34:31;14.90;99.90
12588;DHT22;6359;51.450;7.346;2022-10-18T06:36:58;14.90;99.90
12588;DHT22;6359;51.450;7.346;2022-10-18T06:39:25;14.90;99.90
12588;DHT22;6359;51.450;7.346;2022-10-18T06:41:52;14.90;99.90
12588;DHT22;6359;51.450;7.346;2022-10-18T06:44:19;14.90;99.90
12588;DHT22;6359;51.450;7.346;2022-10-18T06:46:48;15.00;99.90
12588;DHT22;6359;51.450;7.346;2022-10-18T06:49:16;15.00;99.90
12588;DHT22;6359;51.450;7.346;2022-10-18T06:51:43;15.00;99.90
12588;DHT22;6359;51.450;7.346;2022-10-18T06:54:11;15.00;99.90
12588;DHT22;6359;51.450;7.346;2022-10-18T06:56:38;15.10;99.90
12588;DHT22;6359;51.450;7.346;2022-10-18T06:59:05;15.00;99.90
12588;DHT22;6359;51.450;7.346;2022-10-18T07:01:32;15.00;99.90
12588;DHT22;6359;51.450;7.346;2022-10-18T07:04:00;15.00;99.90
12588;DHT22;6359;51.450;7.346;2022-10-18T07:06:27;15.00;99.90
12588;DHT22;6359;51.450;7.346;2022-10-18T07:08:54;15.00;99.90
12588;DHT22;6359;51.450;7.346;2022-10-18T07:11:23;15.00;99.90
12588;DHT22;6359;51.450;7.346;2022-10-18T07:13:50;15.10;99.90
12588;DHT22;6359;51.450;7.346;2022-10-18T07:16:18;15.10;99.90
12588;DHT22;6359;51.450;7.346;2022-10-18T07:18:48;15.10;99.90
12588;DHT22;6359;51.450;7.346;2022-10-18T07:21:18;15.20;99.90
12588;DHT22;6359;51.450;7.346;2022-10-18T07:23:45;15.20;99.90
12588;DHT22;6359;51.450;7.346;2022-10-18T07:26:14;15.30;99.90
12588;DHT22;6359;51.450;7.346;2022-10-18T07:28:42;15.30;99.90
12588;DHT22;6359;51.450;7.346;2022-10-18T07:31:10;15.40;99.90
12588;DHT22;6359;51.450;7.346;2022-10-18T07:33:37;15.40;99.90
12588;DHT22;6359;51.450;7.346;2022-10-18T07:36:06;15.40;99.90
12588;DHT22;6359;51.450;7.346;2022-10-18T07:38:35;15.40;99.90
12588;DHT22;6359;51.450;7.346;2022-10-18T07:41:04;15.40;99.90
12588;DHT22;6359;51.450;7.346;2022-10-18T07:43:32;15.50;99.90
12588;DHT22;6359;51.450;7.346;2022-10-18T07:46:01;15.50;99.90
12588;DHT22;6359;51.450;7.346;2022-10-18T07:48:28;15.40;99.90
12588;DHT22;6359;51.450;7.346;2022-10-18T07:50:57;15.40;99.90
12588;DHT22;6359;51.450;7.346;2022-10-18T07:53:25;15.40;99.90
12588;DHT22;6359;51.450;7.346;2022-10-18T07:55:56;15.50;99.90
12588;DHT22;6359;51.450;7.346;2022-10-18T07:58:23;15.50;99.90
12588;DHT22;6359;51.450;7.346;2022-10-18T08:00:50;15.60;99.90
12588;DHT22;6359;51.450;7.346;2022-10-18T08:03:17;15.70;99.90
12588;DHT22;6359;51.450;7.346;2022-10-18T08:05:50;15.80;99.90
12588;DHT22;6359;51.450;7.346;2022-10-18T08:08:17;15.80;99.90
12588;DHT22;6359;51.450;7.346;2022-10-18T08:10:44;15.90;99.90
12588;DHT22;6359;51.450;7.346;2022-10-18T08:13:12;16.20;99.90
12588;DHT22;6359;51.450;7.346;2022-10-18T08:15:39;16.30;99.90
12588;DHT22;6359;51.450;7.346;2022-10-18T08:18:06;16.40;99.90
12588;DHT22;6359;51.450;7.346;2022-10-18T08:20:33;16.60;99.90
12588;DHT22;6359;51.450;7.346;2022-10-18T08:23:01;16.60;99.90
12588;DHT22;6359;51.450;7.346;2022-10-18T08:25:29;16.70;99.90
12588;DHT22;6359;51.450;7.346;2022-10-18T08:27:56;16.60;99.90
12588;DHT22;6359;51.450;7.346;2022-10-18T08:30:24;16.50;99.90
12588;DHT22;6359;51.450;7.346;2022-10-18T08:32:51;16.50;99.90
12588;DHT22;6359;51.450;7.346;2022-10-18T08:35:18;16.50;99.90
12588;DHT22;6359;51.450;7.346;2022-10-18T08:37:45;16.40;99.90
12588;DHT22;6359;51.450;7.346;2022-10-18T08:40:13;16.50;99.90
12588;DHT22;6359;51.450;7.346;2022-10-18T08:42:51;16.50;99.90
12588;DHT22;6359;51.450;7.346;2022-10-18T08:45:25;16.40;99.90
12588;DHT22;6359;51.450;7.346;2022-10-18T08:47:54;16.40;99.90
12588;DHT22;6359;51.450;7.346;2022-10-18T08:50:26;16.40;99.90
12588;DHT22;6359;51.450;7.346;2022-10-18T08:53:00;16.40;99.90
12588;DHT22;6359;51.450;7.346;2022-10-18T08:55:31;16.40;99.90
12588;DHT22;6359;51.450;7.346;2022-10-18T08:58:02;16.30;99.90
12588;DHT22;6359;51.450;7.346;2022-10-18T09:00:36;16.20;99.90
12588;DHT22;6359;51.450;7.346;2022-10-18T09:03:16;16.20;99.90
12588;DHT22;6359;51.450;7.346;2022-10-18T09:05:50;16.20;99.90
12588;DHT22;6359;51.450;7.346;2022-10-18T09:08:31;16.30;99.90
12588;DHT22;6359;51.450;7.346;2022-10-18T09:11:09;16.30;99.90
12588;DHT22;6359;51.450;7.346;2022-10-18T09:14:23;16.40;99.90
12588;DHT22;6359;51.450;7.346;2022-10-18T09:17:00;16.60;99.90
12588;DHT22;6359;51.450;7.346;2022-10-18T09:19:54;16.70;99.90
12588;DHT22;6359;51.450;7.346;2022-10-18T09:22:31;16.80;99.90
12588;DHT22;6359;51.450;7.346;2022-10-18T09:25:08;16.90;99.90
12588;DHT22;6359;51.450;7.346;2022-10-18T09:27:42;17.00;99.90
12588;DHT22;6359;51.450;7.346;2022-10-18T09:30:19;17.00;99.90
12588;DHT22;6359;51.450;7.346;2022-10-18T09:32:55;17.00;99.90
12588;DHT22;6359;51.450;7.346;2022-10-18T09:35:28;16.90;99.90
12588;DHT22;6359;51.450;7.346;2022-10-18T09:38:01;16.80;99.90
12588;DHT22;6359;51.450;7.346;2022-10-18T09:40:31;16.70;99.90
12588;DHT22;6359;51.450;7.346;2022-10-18T09:43:05;16.60;99.90
12588;DHT22;6359;51.450;7.346;2022-10-18T09:45:34;16.60;99.90
12588;DHT22;6359;51.450;7.346;2022-10-18T09:48:06;16.60;99.90
12588;DHT22;6359;51.450;7.346;2022-10-18T09:50:39;16.50;99.90
12588;DHT22;6359;51.450;7.346;2022-10-18T09:53:14;16.60;99.90
12588;DHT22;6359;51.450;7.346;2022-10-18T09:55:54;16.60;99.90
12588;DHT22;6359;51.450;7.346;2022-10-18T09:58:23;16.70;99.90
12588;DHT22;6359;51.450;7.346;2022-10-18T10:00:52;16.70;99.90
12588;DHT22;6359;51.450;7.346;2022-10-18T10:03:22;16.70;99.90
12588;DHT22;6359;51.450;7.346;2022-10-18T10:06:01;16.90;99.90
12588;DHT22;6359;51.450;7.346;2022-10-18T10:08:32;17.00;99.90
12588;DHT22;6359;51.450;7.346;2022-10-18T10:10:59;17.10;99.90
12588;DHT22;6359;51.450;7.346;2022-10-18T10:13:26;17.10;99.90
12588;DHT22;6359;51.450;7.346;2022-10-18T10:15:55;17.20;99.90
12588;DHT22;6359;51.450;7.346;2022-10-18T10:18:25;17.30;99.90
12588;DHT22;6359;51.450;7.346;2022-10-18T10:20:56;17.40;99.90
12588;DHT22;6359;51.450;7.346;2022-10-18T10:23:26;17.60;99.90
12588;DHT22;6359;51.450;7.346;2022-10-18T10:25:55;17.90;99.90
12588;DHT22;6359;51.450;7.346;2022-10-18T10:28:25;18.20;99.90
12588;DHT22;6359;51.450;7.346;2022-10-18T10:30:53;18.40;99.90
12588;DHT22;6359;51.450;7.346;2022-10-18T10:33:33;18.50;99.90
12588;DHT22;6359;51.450;7.346;2022-10-18T10:36:02;18.60;99.90
12588;DHT22;6359;51.450;7.346;2022-10-18T10:38:30;18.70;99.90
12588;DHT22;6359;51.450;7.346;2022-10-18T10:40:58;18.80;99.90
12588;DHT22;6359;51.450;7.346;2022-10-18T10:43:26;18.80;99.90
12588;DHT22;6359;51.450;7.346;2022-10-18T10:46:00;18.80;99.90
12588;DHT22;6359;51.450;7.346;2022-10-18T10:48:31;18.90;99.90
12588;DHT22;6359;51.450;7.346;2022-10-18T10:51:02;19.10;99.90
12588;DHT22;6359;51.450;7.346;2022-10-18T10:53:42;19.00;99.90
12588;DHT22;6359;51.450;7.346;2022-10-18T10:56:17;19.00;99.90
12588;DHT22;6359;51.450;7.346;2022-10-18T10:58:46;19.50;99.90
12588;DHT22;6359;51.450;7.346;2022-10-18T11:01:18;20.20;99.90
12588;DHT22;6359;51.450;7.346;2022-10-18T11:03:48;20.80;99.90
12588;DHT22;6359;51.450;7.346;2022-10-18T11:06:52;21.40;99.90
12588;DHT22;6359;51.450;7.346;2022-10-18T11:09:47;21.50;99.90
12588;DHT22;6359;51.450;7.346;2022-10-18T11:12:21;21.90;99.90
12588;DHT22;6359;51.450;7.346;2022-10-18T11:14:54;22.40;99.90
12588;DHT22;6359;51.450;7.346;2022-10-18T11:17:28;22.60;99.90
12588;DHT22;6359;51.450;7.346;2022-10-18T11:20:11;23.10;99.90
12588;DHT22;6359;51.450;7.346;2022-10-18T11:22:44;22.90;99.90
12588;DHT22;6359;51.450;7.346;2022-10-18T11:25:13;22.00;99.90
12588;DHT22;6359;51.450;7.346;2022-10-18T11:27:45;21.20;99.90
12588;DHT22;6359;51.450;7.346;2022-10-18T11:30:33;20.30;99.90
12588;DHT22;6359;51.450;7.346;2022-10-18T11:33:09;19.90;99.90
12588;DHT22;6359;51.450;7.346;2022-10-18T11:35:44;19.60;99.90
12588;DHT22;6359;51.450;7.346;2022-10-18T11:38:25;19.40;99.90
12588;DHT22;6359;51.450;7.346;2022-10-18T11:43:53;19.40;99.90
12588;DHT22;6359;51.450;7.346;2022-10-18T11:46:29;19.50;99.90
12588;DHT22;6359;51.450;7.346;2022-10-18T11:49:10;19.40;99.90
12588;DHT22;6359;51.450;7.346;2022-10-18T11:51:50;19.50;99.90
12588;DHT22;6359;51.450;7.346;2022-10-18T11:54:33;19.60;99.90
12588;DHT22;6359;51.450;7.346;2022-10-18T11:57:11;19.90;99.90
12588;DHT22;6359;51.450;7.346;2022-10-18T11:59:47;20.40;99.90
12588;DHT22;6359;51.450;7.346;2022-10-18T12:02:32;20.70;99.90
12588;DHT22;6359;51.450;7.346;2022-10-18T12:05:08;20.70;99.90
12588;DHT22;6359;51.450;7.346;2022-10-18T12:07:41;20.70;99.90
12588;DHT22;6359;51.450;7.346;2022-10-18T12:10:15;20.80;99.90
12588;DHT22;6359;51.450;7.346;2022-10-18T12:12:49;20.80;99.90
12588;DHT22;6359;51.450;7.346;2022-10-18T12:15:19;20.70;99.90
12588;DHT22;6359;51.450;7.346;2022-10-18T12:17:50;20.80;99.90
12588;DHT22;6359;51.450;7.346;2022-10-18T12:20:22;20.80;99.90
12588;DHT22;6359;51.450;7.346;2022-10-18T12:22:57;20.40;99.90
12588;DHT22;6359;51.450;7.346;2022-10-18T12:25:26;20.30;99.90
12588;DHT22;6359;51.450;7.346;2022-10-18T12:27:56;20.40;99.90
12588;DHT22;6359;51.450;7.346;2022-10-18T12:30:35;20.50;99.90
12588;DHT22;6359;51.450;7.346;2022-10-18T12:33:08;20.70;99.90
12588;DHT22;6359;51.450;7.346;2022-10-18T12:35:45;20.70;99.90
12588;DHT22;6359;51.450;7.346;2022-10-18T12:38:20;20.70;99.90
12588;DHT22;6359;51.450;7.346;2022-10-18T12:40:49;20.80;99.90
12588;DHT22;6359;51.450;7.346;2022-10-18T12:43:17;20.90;99.90
12588;DHT22;6359;51.450;7.346;2022-10-18T12:45:49;21.00;99.90
12588;DHT22;6359;51.450;7.346;2022-10-18T12:48:29;20.60;99.90
12588;DHT22;6359;51.450;7.346;2022-10-18T12:50:59;19.90;99.90
12588;DHT22;6359;51.450;7.346;2022-10-18T12:53:30;19.60;99.90
12588;DHT22;6359;51.450;7.346;2022-10-18T13:02:29;19.60;99.90
12588;DHT22;6359;51.450;7.346;2022-10-18T13:04:57;19.90;99.90
12588;DHT22;6359;51.450;7.346;2022-10-18T13:07:39;20.00;99.90
12588;DHT22;6359;51.450;7.346;2022-10-18T13:10:40;20.10;99.90
12588;DHT22;6359;51.450;7.346;2022-10-18T13:16:04;19.40;99.90
12588;DHT22;6359;51.450;7.346;2022-10-18T13:18:42;19.00;99.90
12588;DHT22;6359;51.450;7.346;2022-10-18T13:21:18;18.90;99.90
12588;DHT22;6359;51.450;7.346;2022-10-18T13:23:59;18.70;99.90
12588;DHT22;6359;51.450;7.346;2022-10-18T13:26:37;18.60;99.90
12588;DHT22;6359;51.450;7.346;2022-10-18T13:29:23;18.30;99.90
12588;DHT22;6359;51.450;7.346;2022-10-18T13:31:57;18.10;99.90
12588;DHT22;6359;51.450;7.346;2022-10-18T13:34:30;17.90;99.90
12588;DHT22;6359;51.450;7.346;2022-10-18T13:37:00;18.00;99.90
12588;DHT22;6359;51.450;7.346;2022-10-18T13:39:28;18.20;99.90
12588;DHT22;6359;51.450;7.346;2022-10-18T13:42:29;18.60;99.90
12588;DHT22;6359;51.450;7.346;2022-10-18T13:47:56;19.30;99.90
12588;DHT22;6359;51.450;7.346;2022-10-18T13:50:43;19.60;99.90
12588;DHT22;6359;51.450;7.346;2022-10-18T13:53:32;19.60;99.90
12588;DHT22;6359;51.450;7.346;2022-10-18T13:59:20;19.40;99.90
12588;DHT22;6359;51.450;7.346;2022-10-18T14:02:00;19.80;99.90
12588;DHT22;6359;51.450;7.346;2022-10-18T14:04:46;20.20;99.90
12588;DHT22;6359;51.450;7.346;2022-10-18T14:07:21;20.10;99.90
12588;DHT22;6359;51.450;7.346;2022-10-18T14:09:52;19.90;99.90
12588;DHT22;6359;51.450;7.346;2022-10-18T14:12:25;19.90;99.90
12588;DHT22;6359;51.450;7.346;2022-10-18T14:15:01;19.90;99.90
12588;DHT22;6359;51.450;7.346;2022-10-18T14:17:34;19.70;99.90
12588;DHT22;6359;51.450;7.346;2022-10-18T14:20:14;19.60;99.90
12588;DHT22;6359;51.450;7.346;2022-10-18T14:22:44;19.50;99.90
12588;DHT22;6359;51.450;7.346;2022-10-18T14:25:21;19.30;99.90
12588;DHT22;6359;51.450;7.346;2022-10-18T14:28:03;19.10;99.90
12588;DHT22;6359;51.450;7.346;2022-10-18T14:30:31;19.10;99.90
12588;DHT22;6359;51.450;7.346;2022-10-18T14:32:58;19.10;99.90
12588;DHT22;6359;51.450;7.346;2022-10-18T14:35:27;19.10;99.90
12588;DHT22;6359;51.450;7.346;2022-10-18T14:37:55;18.90;99.90
12588;DHT22;6359;51.450;7.346;2022-10-18T14:40:32;18.90;99.90
12588;DHT22;6359;51.450;7.346;2022-10-18T14:43:06;18.80;99.90
12588;DHT22;6359;51.450;7.346;2022-10-18T14:45:37;18.80;99.90
12588;DHT22;6359;51.450;7.346;2022-10-18T14:48:13;18.90;99.90
12588;DHT22;6359;51.450;7.346;2022-10-18T14:50:41;18.90;99.90
12588;DHT22;6359;51.450;7.346;2022-10-18T14:53:14;18.80;99.90
12588;DHT22;6359;51.450;7.346;2022-10-18T14:55:41;18.70;99.90
12588;DHT22;6359;51.450;7.346;2022-10-18T14:58:13;18.70;99.90
12588;DHT22;6359;51.450;7.346;2022-10-18T15:00:42;18.60;99.90
12588;DHT22;6359;51.450;7.346;2022-10-18T15:03:13;18.50;99.90
12588;DHT22;6359;51.450;7.346;2022-10-18T15:05:51;18.50;99.90
12588;DHT22;6359;51.450;7.346;2022-10-18T15:08:18;18.40;99.90
12588;DHT22;6359;51.450;7.346;2022-10-18T15:10:46;18.30;99.90
12588;DHT22;6359;51.450;7.346;2022-10-18T15:13:14;18.20;99.90
12588;DHT22;6359;51.450;7.346;2022-10-18T15:15:43;18.20;99.90
12588;DHT22;6359;51.450;7.346;2022-10-18T15:18:19;18.10;99.90
12588;DHT22;6359;51.450;7.346;2022-10-18T15:23:50;18.00;99.90
12588;DHT22;6359;51.450;7.346;2022-10-18T15:26:21;17.90;99.90
12588;DHT22;6359;51.450;7.346;2022-10-18T15:28:50;17.90;99.90
12588;DHT22;6359;51.450;7.346;2022-10-18T15:31:24;17.80;99.90
12588;DHT22;6359;51.450;7.346;2022-10-18T15:33:52;17.70;99.90
12588;DHT22;6359;51.450;7.346;2022-10-18T15:36:26;17.60;99.90
12588;DHT22;6359;51.450;7.346;2022-10-18T15:39:04;17.60;99.90
12588;DHT22;6359;51.450;7.346;2022-10-18T15:41:39;17.50;99.90
12588;DHT22;6359;51.450;7.346;2022-10-18T15:44:16;17.50;99.90
12588;DHT22;6359;51.450;7.346;2022-10-18T15:46:46;17.50;99.90
12588;DHT22;6359;51.450;7.346;2022-10-18T15:52:33;17.20;99.90
12588;DHT22;6359;51.450;7.346;2022-10-18T15:55:01;17.00;99.90
12588;DHT22;6359;51.450;7.346;2022-10-18T15:57:49;16.80;99.90
12588;DHT22;6359;51.450;7.346;2022-10-18T16:00:18;16.60;99.90
12588;DHT22;6359;51.450;7.346;2022-10-18T16:02:46;16.40;99.90
12588;DHT22;6359;51.450;7.346;2022-10-18T16:05:14;16.30;99.90
12588;DHT22;6359;51.450;7.346;2022-10-18T16:07:42;16.10;99.90
12588;DHT22;6359;51.450;7.346;2022-10-18T16:10:11;15.90;99.90
12588;DHT22;6359;51.450;7.346;2022-10-18T16:12:39;15.60;99.90
12588;DHT22;6359;51.450;7.346;2022-10-18T16:15:08;15.30;99.90
12588;DHT22;6359;51.450;7.346;2022-10-18T16:17:35;15.10;99.90
12588;DHT22;6359;51.450;7.346;2022-10-18T16:20:02;14.90;99.90
12588;DHT22;6359;51.450;7.346;2022-10-18T16:22:29;14.60;99.90
12588;DHT22;6359;51.450;7.346;2022-10-18T16:24:56;14.40;99.90
12588;DHT22;6359;51.450;7.346;2022-10-18T16:27:23;14.20;99.90
12588;DHT22;6359;51.450;7.346;2022-10-18T16:29:51;14.00;99.90
12588;DHT22;6359;51.450;7.346;2022-10-18T16:32:19;13.70;99.90
12588;DHT22;6359;51.450;7.346;2022-10-18T16:34:46;13.50;99.90